METAR / TAF
Helsinki-Vantaa
HELSINKI/VANTAA
Metar
EFHK 222250Z 22005KT CAVOK 07/02 Q1027 NOSIG

22:50 UTC

Wind: 220° 5kt

Visibility:

Sky:

Temp: 7 deg C / 44.6 deg F

Dewpoint: 2 deg C / 35.6 deg F

Pressure: 1027 hPa

TAF
TAF EFHK 222023Z 2221/2321 23006KT CAVOK
Helsinki, Malmi
HELSINKI/MALMI
Turku
TURKU/ABO
Metar
EFTU 222250Z AUTO 20006KT CAVOK 06/03 Q1027

22:50 UTC

Wind: 200° 6kt

Visibility:

Sky:

Temp: 6 deg C / 42.8 deg F

Dewpoint: 3 deg C / 37.4 deg F

Pressure: 1027 hPa

TAF
TAF EFTU 222023Z 2221/2321 22006KT CAVOK
Tampere, Pirkkala
TAMPERE/PIRKKALA
Metar
EFTP 222250Z AUTO 19005KT CAVOK 07/02 Q1026

22:50 UTC

Wind: 190° 5kt

Visibility:

Sky:

Temp: 7 deg C / 44.6 deg F

Dewpoint: 2 deg C / 35.6 deg F

Pressure: 1026 hPa

TAF
TAF EFTP 222024Z 2221/2321 22008KT CAVOK
Maarianhamina
MARIEHAMN/ALAND
Metar
EFMA 222250Z AUTO 19008KT CAVOK 05/03 Q1026

22:50 UTC

Wind: 190° 8kt

Visibility:

Sky:

Temp: 5 deg C / 41 deg F

Dewpoint: 3 deg C / 37.4 deg F

Pressure: 1026 hPa

TAF
TAF EFMA 222023Z 2221/2306 19010KT CAVOK
Pori
PORI (MIL/CIV)
Metar
EFPO 222250Z AUTO 18006KT CAVOK 07/02 Q1025

22:50 UTC

Wind: 180° 6kt

Visibility:

Sky:

Temp: 7 deg C / 44.6 deg F

Dewpoint: 2 deg C / 35.6 deg F

Pressure: 1025 hPa

TAF
TAF EFPO 221434Z 2215/2219 19011KT CAVOK
Vaasa
VAASA
Metar
EFVA 222250Z AUTO 20009KT CAVOK 07/02 Q1022

22:50 UTC

Wind: 200° 9kt

Visibility:

Sky:

Temp: 7 deg C / 44.6 deg F

Dewpoint: 2 deg C / 35.6 deg F

Pressure: 1022 hPa

TAF
TAF EFVA 222023Z 2221/2321 19009KT CAVOK
Kruunupyy
KRUUNUPYY
Metar
EFKK 222250Z AUTO 18006KT CAVOK 05/01 Q1021

22:50 UTC

Wind: 180° 6kt

Visibility:

Sky:

Temp: 5 deg C / 41 deg F

Dewpoint: 1 deg C / 33.8 deg F

Pressure: 1021 hPa

TAF
TAF EFKK 222023Z 2221/2321 18006KT CAVOK
Jyväskylä, Tikkakoski
JYVASKYLA (MIL/C
Metar
EFJY 222250Z AUTO 22004KT 180V260 CAVOK 08/02 Q1024

22:50 UTC

Wind: 220° 4kt

Visibility:

Sky:

Temp: 8 deg C / 46.4 deg F

Dewpoint: 2 deg C / 35.6 deg F

Pressure: 1024 hPa

TAF
TAF EFJY 222024Z 2221/2321 22005KT CAVOK
Kuopio
KUOPIO (MIL/CIV)
Metar
EFKU 222250Z AUTO 18007KT CAVOK 06/01 Q1023

22:50 UTC

Wind: 180° 7kt

Visibility:

Sky:

Temp: 6 deg C / 42.8 deg F

Dewpoint: 1 deg C / 33.8 deg F

Pressure: 1023 hPa

TAF
TAF EFKU 222036Z 2221/2321 21005KT CAVOK
Joensuu
JOENSUU
Metar
EFJO 222250Z AUTO 17002KT CAVOK 03/01 Q1024

22:50 UTC

Wind: 170° 2kt

Visibility:

Sky:

Temp: 3 deg C / 37.4 deg F

Dewpoint: 1 deg C / 33.8 deg F

Pressure: 1024 hPa

TAF
TAF EFJO 222036Z 2221/2223 20002KT CAVOK
Halli
HALLI (FIN-AFB)
Metar
EFHA 222250Z AUTO VRB03KT 110V210 CAVOK 06/02 Q1025

22:50 UTC

Wind: ° 3kt

Visibility:

Sky:

Temp: 6 deg C / 42.8 deg F

Dewpoint: 2 deg C / 35.6 deg F

Pressure: 1025 hPa

Utti
UTTI (FIN-AFB)
Metar
EFUT 222250Z AUTO 25003KT CAVOK 09/01 Q1027

22:50 UTC

Wind: 250° 3kt

Visibility:

Sky:

Temp: 9 deg C / 48.2 deg F

Dewpoint: 1 deg C / 33.8 deg F

Pressure: 1027 hPa

Mikkeli
MIKKELI
Metar
EFMI 222250Z AUTO 26003KT CAVOK 06/02 Q1026

22:50 UTC

Wind: 260° 3kt

Visibility:

Sky:

Temp: 6 deg C / 42.8 deg F

Dewpoint: 2 deg C / 35.6 deg F

Pressure: 1026 hPa

Savonlinna
SAVONLINNA (AUT)
Metar
EFSA 222250Z AUTO 23004KT CAVOK 03/02 Q1025

22:50 UTC

Wind: 230° 4kt

Visibility:

Sky:

Temp: 3 deg C / 37.4 deg F

Dewpoint: 2 deg C / 35.6 deg F

Pressure: 1025 hPa

Lappeenranta
LAPPEENRANTA
Oulu
OULU/ULEABORG
Metar
EFOU 222250Z AUTO 24007KT CAVOK 07/02 Q1020

22:50 UTC

Wind: 240° 7kt

Visibility:

Sky:

Temp: 7 deg C / 44.6 deg F

Dewpoint: 2 deg C / 35.6 deg F

Pressure: 1020 hPa

TAF
TAF EFOU 222036Z 2221/2321 22005KT CAVOK PROB30 2304/2309 BKN005
Kemi
KEMI
Metar
EFKE 222250Z AUTO 19006KT CAVOK 02/01 Q1018

22:50 UTC

Wind: 190° 6kt

Visibility:

Sky:

Temp: 2 deg C / 35.6 deg F

Dewpoint: 1 deg C / 33.8 deg F

Pressure: 1018 hPa

TAF
TAF EFKE 222036Z 2221/2224 19007KT 9999 FEW003 TEMPO 2221/2224 BKN002 PROB30 2221/2224 4000 BR
Rovaniemi
ROVANIEMI (CIV/M
Metar
EFRO 222250Z AUTO 21012KT CAVOK 03/02 Q1015

22:50 UTC

Wind: 210° 12kt

Visibility:

Sky:

Temp: 3 deg C / 37.4 deg F

Dewpoint: 2 deg C / 35.6 deg F

Pressure: 1015 hPa

TAF
TAF AMD EFRO 222152Z 2221/2321 21013KT CAVOK PROB30 2222/2224 1500 BR BKN001
Enontekiö
ENONTEKIO
Metar
EFET 222250Z AUTO 21012KT CAVOK 05/02 Q1009

22:50 UTC

Wind: 210° 12kt

Visibility:

Sky:

Temp: 5 deg C / 41 deg F

Dewpoint: 2 deg C / 35.6 deg F

Pressure: 1009 hPa

Ivalo
IVALO
Metar
EFIV 222250Z AUTO 22011KT CAVOK 05/00 Q1009

22:50 UTC

Wind: 220° 11kt

Visibility:

Sky:

Temp: 5 deg C / 41 deg F

Dewpoint: 0 deg C / 32 deg F

Pressure: 1009 hPa

Kittilä
KITTILA
Metar
EFKT 222250Z AUTO 24009KT 210V270 CAVOK 06/01 Q1011

22:50 UTC

Wind: 240° 9kt

Visibility:

Sky:

Temp: 6 deg C / 42.8 deg F

Dewpoint: 1 deg C / 33.8 deg F

Pressure: 1011 hPa

TAF
TAF EFKT 221738Z 2218/2222 22009KT 9999 -RA BKN030 PROB30 2218/2222 7000 RA BKN010
Kuusamo
KUUSAMO
Metar
EFKS 222250Z AUTO 22007KT 200V260 CAVOK 05/01 Q1016

22:50 UTC

Wind: 220° 7kt

Visibility:

Sky:

Temp: 5 deg C / 41 deg F

Dewpoint: 1 deg C / 33.8 deg F

Pressure: 1016 hPa

TAF
TAF EFKS 221738Z 2218/2221 19006KT 9999 -RA BKN045
Kajaani
KAJAANI
Metar
EFKI 222250Z AUTO 21007KT CAVOK 07/02 Q1021

22:50 UTC

Wind: 210° 7kt

Visibility:

Sky:

Temp: 7 deg C / 44.6 deg F

Dewpoint: 2 deg C / 35.6 deg F

Pressure: 1021 hPa

TAF
TAF EFKI 221428Z 2215/2219 32007KT CAVOK
Varkaus
VARKAUS
Seinäjoki
SEINAJOKI-ILMAJO
Print Friendly, PDF & Email